sensor_id;sensor_type;location;lat;lon;timestamp;P1;durP1;ratioP1;P2;durP2;ratioP2
12519;SDS011;6325;49.540;8.364;2022-07-06T00:01:19;1.30;;;1.30;;
12519;SDS011;6325;49.540;8.364;2022-07-06T00:03:48;1.40;;;1.40;;
12519;SDS011;6325;49.540;8.364;2022-07-06T00:06:15;1.30;;;1.20;;
12519;SDS011;6325;49.540;8.364;2022-07-06T00:08:42;1.77;;;1.48;;
12519;SDS011;6325;49.540;8.364;2022-07-06T00:11:10;1.95;;;1.75;;
12519;SDS011;6325;49.540;8.364;2022-07-06T00:13:37;1.52;;;1.42;;
12519;SDS011;6325;49.540;8.364;2022-07-06T00:16:04;1.60;;;1.50;;
12519;SDS011;6325;49.540;8.364;2022-07-06T00:18:31;1.20;;;1.20;;
12519;SDS011;6325;49.540;8.364;2022-07-06T00:20:59;1.30;;;1.30;;
12519;SDS011;6325;49.540;8.364;2022-07-06T00:23:26;1.10;;;1.10;;
12519;SDS011;6325;49.540;8.364;2022-07-06T00:25:53;1.30;;;1.20;;
12519;SDS011;6325;49.540;8.364;2022-07-06T00:28:19;1.42;;;1.40;;
12519;SDS011;6325;49.540;8.364;2022-07-06T00:30:46;1.30;;;1.27;;
12519;SDS011;6325;49.540;8.364;2022-07-06T00:33:13;1.90;;;1.50;;
12519;SDS011;6325;49.540;8.364;2022-07-06T00:35:41;1.85;;;1.48;;
12519;SDS011;6325;49.540;8.364;2022-07-06T00:38:10;1.73;;;1.40;;
12519;SDS011;6325;49.540;8.364;2022-07-06T00:40:37;1.42;;;1.33;;
12519;SDS011;6325;49.540;8.364;2022-07-06T00:43:04;1.50;;;1.25;;
12519;SDS011;6325;49.540;8.364;2022-07-06T00:45:30;1.55;;;1.45;;
12519;SDS011;6325;49.540;8.364;2022-07-06T00:47:57;1.20;;;1.20;;
12519;SDS011;6325;49.540;8.364;2022-07-06T00:50:24;1.20;;;1.20;;
12519;SDS011;6325;49.540;8.364;2022-07-06T00:52:54;1.58;;;1.38;;
12519;SDS011;6325;49.540;8.364;2022-07-06T00:55:24;1.35;;;1.20;;
12519;SDS011;6325;49.540;8.364;2022-07-06T00:57:51;1.20;;;1.20;;
12519;SDS011;6325;49.540;8.364;2022-07-06T01:00:19;1.40;;;1.30;;
12519;SDS011;6325;49.540;8.364;2022-07-06T01:02:49;1.30;;;1.20;;
12519;SDS011;6325;49.540;8.364;2022-07-06T01:05:16;1.10;;;1.10;;
12519;SDS011;6325;49.540;8.364;2022-07-06T01:07:44;1.17;;;1.07;;
12519;SDS011;6325;49.540;8.364;2022-07-06T01:10:14;1.10;;;1.10;;
12519;SDS011;6325;49.540;8.364;2022-07-06T01:12:44;1.90;;;1.30;;
12519;SDS011;6325;49.540;8.364;2022-07-06T01:15:13;1.10;;;1.10;;
12519;SDS011;6325;49.540;8.364;2022-07-06T01:17:42;1.00;;;1.00;;
12519;SDS011;6325;49.540;8.364;2022-07-06T01:20:11;1.00;;;1.00;;
12519;SDS011;6325;49.540;8.364;2022-07-06T01:22:38;1.40;;;1.30;;
12519;SDS011;6325;49.540;8.364;2022-07-06T01:25:06;1.33;;;1.20;;
12519;SDS011;6325;49.540;8.364;2022-07-06T01:27:34;1.20;;;1.20;;
12519;SDS011;6325;49.540;8.364;2022-07-06T01:30:03;1.40;;;1.30;;
12519;SDS011;6325;49.540;8.364;2022-07-06T01:32:31;1.33;;;1.20;;
12519;SDS011;6325;49.540;8.364;2022-07-06T01:34:58;1.00;;;1.00;;
12519;SDS011;6325;49.540;8.364;2022-07-06T01:37:27;1.00;;;0.90;;
12519;SDS011;6325;49.540;8.364;2022-07-06T01:39:57;0.90;;;0.90;;
12519;SDS011;6325;49.540;8.364;2022-07-06T01:42:24;1.08;;;1.08;;
12519;SDS011;6325;49.540;8.364;2022-07-06T01:44:51;1.08;;;1.08;;
12519;SDS011;6325;49.540;8.364;2022-07-06T01:47:18;0.95;;;0.95;;
12519;SDS011;6325;49.540;8.364;2022-07-06T01:49:44;1.00;;;1.00;;
12519;SDS011;6325;49.540;8.364;2022-07-06T01:52:11;0.80;;;0.80;;
12519;SDS011;6325;49.540;8.364;2022-07-06T01:54:39;1.20;;;1.00;;
12519;SDS011;6325;49.540;8.364;2022-07-06T01:57:06;0.90;;;0.90;;
12519;SDS011;6325;49.540;8.364;2022-07-06T01:59:33;0.90;;;0.90;;
12519;SDS011;6325;49.540;8.364;2022-07-06T02:02:00;0.95;;;0.85;;
12519;SDS011;6325;49.540;8.364;2022-07-06T02:04:27;0.90;;;0.90;;
12519;SDS011;6325;49.540;8.364;2022-07-06T02:06:54;1.00;;;1.00;;
12519;SDS011;6325;49.540;8.364;2022-07-06T02:09:21;1.00;;;1.00;;
12519;SDS011;6325;49.540;8.364;2022-07-06T02:11:49;0.80;;;0.80;;
12519;SDS011;6325;49.540;8.364;2022-07-06T02:14:16;1.20;;;1.10;;
12519;SDS011;6325;49.540;8.364;2022-07-06T02:16:43;1.10;;;1.00;;
12519;SDS011;6325;49.540;8.364;2022-07-06T02:19:10;0.90;;;0.90;;
12519;SDS011;6325;49.540;8.364;2022-07-06T02:21:37;1.00;;;0.90;;
12519;SDS011;6325;49.540;8.364;2022-07-06T02:24:04;0.90;;;0.90;;
12519;SDS011;6325;49.540;8.364;2022-07-06T02:26:31;0.88;;;0.88;;
12519;SDS011;6325;49.540;8.364;2022-07-06T02:28:59;0.90;;;0.90;;
12519;SDS011;6325;49.540;8.364;2022-07-06T02:31:26;0.90;;;0.90;;
12519;SDS011;6325;49.540;8.364;2022-07-06T02:33:53;0.85;;;0.80;;
12519;SDS011;6325;49.540;8.364;2022-07-06T02:36:19;1.00;;;1.00;;
12519;SDS011;6325;49.540;8.364;2022-07-06T02:38:46;0.80;;;0.80;;
12519;SDS011;6325;49.540;8.364;2022-07-06T02:41:13;1.10;;;1.00;;
12519;SDS011;6325;49.540;8.364;2022-07-06T02:43:40;1.00;;;1.00;;
12519;SDS011;6325;49.540;8.364;2022-07-06T02:46:08;1.27;;;1.08;;
12519;SDS011;6325;49.540;8.364;2022-07-06T02:48:35;1.23;;;0.98;;
12519;SDS011;6325;49.540;8.364;2022-07-06T02:51:02;0.80;;;0.80;;
12519;SDS011;6325;49.540;8.364;2022-07-06T02:53:29;0.90;;;0.90;;
12519;SDS011;6325;49.540;8.364;2022-07-06T02:55:56;1.00;;;1.00;;
12519;SDS011;6325;49.540;8.364;2022-07-06T02:58:22;0.80;;;0.80;;
12519;SDS011;6325;49.540;8.364;2022-07-06T03:00:49;0.90;;;0.90;;
12519;SDS011;6325;49.540;8.364;2022-07-06T03:03:18;1.00;;;1.00;;
12519;SDS011;6325;49.540;8.364;2022-07-06T03:05:44;0.82;;;0.82;;
12519;SDS011;6325;49.540;8.364;2022-07-06T03:08:13;0.80;;;0.80;;
12519;SDS011;6325;49.540;8.364;2022-07-06T03:10:40;1.77;;;1.20;;
12519;SDS011;6325;49.540;8.364;2022-07-06T03:13:07;1.25;;;0.98;;
12519;SDS011;6325;49.540;8.364;2022-07-06T03:15:34;0.90;;;0.90;;
12519;SDS011;6325;49.540;8.364;2022-07-06T03:18:01;1.50;;;0.97;;
12519;SDS011;6325;49.540;8.364;2022-07-06T03:20:29;0.80;;;0.80;;
12519;SDS011;6325;49.540;8.364;2022-07-06T03:22:56;0.80;;;0.80;;
12519;SDS011;6325;49.540;8.364;2022-07-06T03:25:23;1.90;;;1.05;;
12519;SDS011;6325;49.540;8.364;2022-07-06T03:27:49;1.00;;;1.00;;
12519;SDS011;6325;49.540;8.364;2022-07-06T03:30:16;0.80;;;0.80;;
12519;SDS011;6325;49.540;8.364;2022-07-06T03:32:43;1.05;;;0.90;;
12519;SDS011;6325;49.540;8.364;2022-07-06T03:35:10;0.93;;;0.88;;
12519;SDS011;6325;49.540;8.364;2022-07-06T03:37:38;1.30;;;1.10;;
12519;SDS011;6325;49.540;8.364;2022-07-06T03:40:05;1.02;;;1.00;;
12519;SDS011;6325;49.540;8.364;2022-07-06T03:42:33;2.40;;;1.20;;
12519;SDS011;6325;49.540;8.364;2022-07-06T03:45:00;0.97;;;0.97;;
12519;SDS011;6325;49.540;8.364;2022-07-06T03:47:26;0.90;;;0.90;;
12519;SDS011;6325;49.540;8.364;2022-07-06T03:49:53;1.13;;;1.02;;
12519;SDS011;6325;49.540;8.364;2022-07-06T03:52:20;0.80;;;0.80;;
12519;SDS011;6325;49.540;8.364;2022-07-06T03:54:48;1.17;;;1.17;;
12519;SDS011;6325;49.540;8.364;2022-07-06T03:57:15;1.10;;;1.10;;
12519;SDS011;6325;49.540;8.364;2022-07-06T03:59:42;1.20;;;1.15;;
12519;SDS011;6325;49.540;8.364;2022-07-06T04:02:08;2.20;;;1.30;;
12519;SDS011;6325;49.540;8.364;2022-07-06T04:04:35;1.40;;;1.30;;
12519;SDS011;6325;49.540;8.364;2022-07-06T04:07:02;1.20;;;1.10;;
12519;SDS011;6325;49.540;8.364;2022-07-06T04:09:29;0.90;;;0.90;;
12519;SDS011;6325;49.540;8.364;2022-07-06T04:11:57;2.05;;;1.42;;
12519;SDS011;6325;49.540;8.364;2022-07-06T04:14:24;1.52;;;1.08;;
12519;SDS011;6325;49.540;8.364;2022-07-06T04:16:52;0.95;;;0.90;;
12519;SDS011;6325;49.540;8.364;2022-07-06T04:19:19;1.50;;;1.20;;
12519;SDS011;6325;49.540;8.364;2022-07-06T04:21:45;0.90;;;0.90;;
12519;SDS011;6325;49.540;8.364;2022-07-06T04:24:12;1.75;;;1.20;;
12519;SDS011;6325;49.540;8.364;2022-07-06T04:26:39;1.25;;;1.25;;
12519;SDS011;6325;49.540;8.364;2022-07-06T04:29:07;1.45;;;1.30;;
12519;SDS011;6325;49.540;8.364;2022-07-06T04:31:34;1.33;;;1.23;;
12519;SDS011;6325;49.540;8.364;2022-07-06T04:34:01;2.38;;;1.20;;
12519;SDS011;6325;49.540;8.364;2022-07-06T04:36:28;2.47;;;1.40;;
12519;SDS011;6325;49.540;8.364;2022-07-06T04:38:55;1.95;;;1.38;;
12519;SDS011;6325;49.540;8.364;2022-07-06T04:41:21;2.63;;;1.67;;
12519;SDS011;6325;49.540;8.364;2022-07-06T04:43:48;1.47;;;1.13;;
12519;SDS011;6325;49.540;8.364;2022-07-06T04:46:16;1.60;;;1.30;;
12519;SDS011;6325;49.540;8.364;2022-07-06T04:48:44;1.30;;;1.20;;
12519;SDS011;6325;49.540;8.364;2022-07-06T04:51:11;1.10;;;1.10;;
12519;SDS011;6325;49.540;8.364;2022-07-06T04:53:38;1.08;;;1.08;;
12519;SDS011;6325;49.540;8.364;2022-07-06T04:56:05;1.05;;;0.98;;
12519;SDS011;6325;49.540;8.364;2022-07-06T04:58:32;1.50;;;1.30;;
12519;SDS011;6325;49.540;8.364;2022-07-06T05:00:59;1.30;;;1.20;;
12519;SDS011;6325;49.540;8.364;2022-07-06T05:03:27;1.30;;;1.20;;
12519;SDS011;6325;49.540;8.364;2022-07-06T05:05:54;1.10;;;1.10;;
12519;SDS011;6325;49.540;8.364;2022-07-06T05:08:21;1.95;;;1.50;;
12519;SDS011;6325;49.540;8.364;2022-07-06T05:10:48;1.27;;;1.20;;
12519;SDS011;6325;49.540;8.364;2022-07-06T05:13:16;1.75;;;1.10;;
12519;SDS011;6325;49.540;8.364;2022-07-06T05:15:43;3.17;;;1.38;;
12519;SDS011;6325;49.540;8.364;2022-07-06T05:18:10;1.00;;;1.00;;
12519;SDS011;6325;49.540;8.364;2022-07-06T05:20:38;1.02;;;1.00;;
12519;SDS011;6325;49.540;8.364;2022-07-06T05:23:05;2.63;;;1.55;;
12519;SDS011;6325;49.540;8.364;2022-07-06T05:25:32;1.10;;;1.10;;
12519;SDS011;6325;49.540;8.364;2022-07-06T05:27:59;1.70;;;1.00;;
12519;SDS011;6325;49.540;8.364;2022-07-06T05:30:26;1.63;;;1.20;;
12519;SDS011;6325;49.540;8.364;2022-07-06T05:32:52;1.58;;;1.23;;
12519;SDS011;6325;49.540;8.364;2022-07-06T05:35:19;1.50;;;1.40;;
12519;SDS011;6325;49.540;8.364;2022-07-06T05:37:47;1.20;;;1.20;;
12519;SDS011;6325;49.540;8.364;2022-07-06T05:40:14;1.50;;;1.40;;
12519;SDS011;6325;49.540;8.364;2022-07-06T05:42:41;1.38;;;1.27;;
12519;SDS011;6325;49.540;8.364;2022-07-06T05:45:08;1.45;;;1.33;;
12519;SDS011;6325;49.540;8.364;2022-07-06T05:47:35;2.35;;;1.60;;
12519;SDS011;6325;49.540;8.364;2022-07-06T05:50:20;1.50;;;1.40;;
12519;SDS011;6325;49.540;8.364;2022-07-06T05:52:56;1.50;;;1.35;;
12519;SDS011;6325;49.540;8.364;2022-07-06T05:55:23;1.67;;;1.33;;
12519;SDS011;6325;49.540;8.364;2022-07-06T05:57:50;1.95;;;1.63;;
12519;SDS011;6325;49.540;8.364;2022-07-06T06:00:19;1.63;;;1.50;;
12519;SDS011;6325;49.540;8.364;2022-07-06T06:02:46;2.10;;;1.52;;
12519;SDS011;6325;49.540;8.364;2022-07-06T06:05:13;2.25;;;1.50;;
12519;SDS011;6325;49.540;8.364;2022-07-06T06:07:41;1.83;;;1.40;;
12519;SDS011;6325;49.540;8.364;2022-07-06T06:10:10;1.80;;;1.20;;
12519;SDS011;6325;49.540;8.364;2022-07-06T06:12:39;2.03;;;1.48;;
12519;SDS011;6325;49.540;8.364;2022-07-06T06:15:06;1.58;;;1.27;;
12519;SDS011;6325;49.540;8.364;2022-07-06T06:17:35;1.40;;;1.30;;
12519;SDS011;6325;49.540;8.364;2022-07-06T06:20:03;1.50;;;1.40;;
12519;SDS011;6325;49.540;8.364;2022-07-06T06:22:31;1.40;;;1.30;;
12519;SDS011;6325;49.540;8.364;2022-07-06T06:24:58;1.70;;;1.33;;
12519;SDS011;6325;49.540;8.364;2022-07-06T06:27:26;1.80;;;1.40;;
12519;SDS011;6325;49.540;8.364;2022-07-06T06:29:53;2.90;;;1.70;;
12519;SDS011;6325;49.540;8.364;2022-07-06T06:32:20;1.30;;;1.20;;
12519;SDS011;6325;49.540;8.364;2022-07-06T06:34:46;1.55;;;1.45;;
12519;SDS011;6325;49.540;8.364;2022-07-06T06:37:13;2.53;;;1.45;;
12519;SDS011;6325;49.540;8.364;2022-07-06T06:39:40;2.28;;;1.60;;
12519;SDS011;6325;49.540;8.364;2022-07-06T06:42:07;1.90;;;1.60;;
12519;SDS011;6325;49.540;8.364;2022-07-06T06:44:35;2.37;;;1.60;;
12519;SDS011;6325;49.540;8.364;2022-07-06T06:47:02;1.50;;;1.40;;
12519;SDS011;6325;49.540;8.364;2022-07-06T06:49:29;1.85;;;1.50;;
12519;SDS011;6325;49.540;8.364;2022-07-06T06:51:57;1.83;;;1.43;;
12519;SDS011;6325;49.540;8.364;2022-07-06T06:54:24;1.35;;;1.25;;
12519;SDS011;6325;49.540;8.364;2022-07-06T06:56:50;2.80;;;1.60;;
12519;SDS011;6325;49.540;8.364;2022-07-06T06:59:17;2.53;;;1.70;;
12519;SDS011;6325;49.540;8.364;2022-07-06T07:01:45;2.28;;;1.55;;
12519;SDS011;6325;49.540;8.364;2022-07-06T07:04:12;5.13;;;1.90;;
12519;SDS011;6325;49.540;8.364;2022-07-06T07:06:40;2.17;;;1.55;;
12519;SDS011;6325;49.540;8.364;2022-07-06T07:09:06;2.22;;;1.58;;
12519;SDS011;6325;49.540;8.364;2022-07-06T07:11:33;2.10;;;1.40;;
12519;SDS011;6325;49.540;8.364;2022-07-06T07:14:00;1.95;;;1.50;;
12519;SDS011;6325;49.540;8.364;2022-07-06T07:16:28;1.40;;;1.30;;
12519;SDS011;6325;49.540;8.364;2022-07-06T07:18:56;1.67;;;1.20;;
12519;SDS011;6325;49.540;8.364;2022-07-06T07:21:23;1.60;;;1.50;;
12519;SDS011;6325;49.540;8.364;2022-07-06T07:23:49;2.17;;;1.57;;
12519;SDS011;6325;49.540;8.364;2022-07-06T07:26:16;1.45;;;1.35;;
12519;SDS011;6325;49.540;8.364;2022-07-06T07:28:43;1.88;;;1.60;;
12519;SDS011;6325;49.540;8.364;2022-07-06T07:31:10;2.90;;;1.95;;
12519;SDS011;6325;49.540;8.364;2022-07-06T07:33:37;1.40;;;1.30;;
12519;SDS011;6325;49.540;8.364;2022-07-06T07:36:05;2.15;;;1.40;;
12519;SDS011;6325;49.540;8.364;2022-07-06T07:38:33;1.33;;;1.20;;
12519;SDS011;6325;49.540;8.364;2022-07-06T07:40:59;1.65;;;1.20;;
12519;SDS011;6325;49.540;8.364;2022-07-06T07:43:26;1.48;;;1.20;;
12519;SDS011;6325;49.540;8.364;2022-07-06T07:45:53;1.30;;;1.20;;
12519;SDS011;6325;49.540;8.364;2022-07-06T07:48:20;1.60;;;1.50;;
12519;SDS011;6325;49.540;8.364;2022-07-06T07:50:47;2.10;;;1.38;;
12519;SDS011;6325;49.540;8.364;2022-07-06T07:53:15;1.10;;;1.10;;
12519;SDS011;6325;49.540;8.364;2022-07-06T07:55:42;1.20;;;1.00;;
12519;SDS011;6325;49.540;8.364;2022-07-06T07:58:09;1.58;;;1.20;;
12519;SDS011;6325;49.540;8.364;2022-07-06T08:00:36;1.80;;;1.10;;
12519;SDS011;6325;49.540;8.364;2022-07-06T08:03:03;1.30;;;1.20;;
12519;SDS011;6325;49.540;8.364;2022-07-06T08:05:30;1.30;;;1.10;;
12519;SDS011;6325;49.540;8.364;2022-07-06T08:07:57;1.13;;;1.08;;
12519;SDS011;6325;49.540;8.364;2022-07-06T08:10:25;1.73;;;1.30;;
12519;SDS011;6325;49.540;8.364;2022-07-06T08:12:52;1.52;;;1.27;;
12519;SDS011;6325;49.540;8.364;2022-07-06T08:15:19;1.27;;;1.17;;
12519;SDS011;6325;49.540;8.364;2022-07-06T08:17:46;1.48;;;1.00;;
12519;SDS011;6325;49.540;8.364;2022-07-06T08:20:12;1.63;;;1.20;;
12519;SDS011;6325;49.540;8.364;2022-07-06T08:22:40;1.73;;;1.20;;
12519;SDS011;6325;49.540;8.364;2022-07-06T08:25:08;1.00;;;1.00;;
12519;SDS011;6325;49.540;8.364;2022-07-06T08:27:37;1.90;;;1.15;;
12519;SDS011;6325;49.540;8.364;2022-07-06T08:30:04;0.90;;;0.90;;
12519;SDS011;6325;49.540;8.364;2022-07-06T08:32:31;1.75;;;1.38;;
12519;SDS011;6325;49.540;8.364;2022-07-06T08:34:58;1.10;;;1.10;;
12519;SDS011;6325;49.540;8.364;2022-07-06T08:37:25;1.48;;;1.10;;
12519;SDS011;6325;49.540;8.364;2022-07-06T08:39:52;1.13;;;1.13;;
12519;SDS011;6325;49.540;8.364;2022-07-06T08:42:18;0.90;;;0.90;;
12519;SDS011;6325;49.540;8.364;2022-07-06T08:44:47;1.40;;;1.27;;
12519;SDS011;6325;49.540;8.364;2022-07-06T08:47:16;1.40;;;1.30;;
12519;SDS011;6325;49.540;8.364;2022-07-06T08:49:45;1.67;;;1.10;;
12519;SDS011;6325;49.540;8.364;2022-07-06T08:52:12;2.30;;;1.40;;
12519;SDS011;6325;49.540;8.364;2022-07-06T08:54:41;1.67;;;1.40;;
12519;SDS011;6325;49.540;8.364;2022-07-06T08:57:08;2.58;;;1.50;;
12519;SDS011;6325;49.540;8.364;2022-07-06T08:59:34;1.20;;;1.10;;
12519;SDS011;6325;49.540;8.364;2022-07-06T09:02:04;1.20;;;1.10;;
12519;SDS011;6325;49.540;8.364;2022-07-06T09:04:31;1.52;;;1.38;;
12519;SDS011;6325;49.540;8.364;2022-07-06T09:07:01;1.17;;;1.00;;
12519;SDS011;6325;49.540;8.364;2022-07-06T09:09:28;1.03;;;0.97;;
12519;SDS011;6325;49.540;8.364;2022-07-06T09:11:58;1.33;;;1.23;;
12519;SDS011;6325;49.540;8.364;2022-07-06T09:14:25;1.00;;;1.00;;
12519;SDS011;6325;49.540;8.364;2022-07-06T09:16:56;1.30;;;1.20;;
12519;SDS011;6325;49.540;8.364;2022-07-06T09:19:30;1.10;;;1.10;;
12519;SDS011;6325;49.540;8.364;2022-07-06T09:21:57;2.00;;;1.40;;
12519;SDS011;6325;49.540;8.364;2022-07-06T09:24:24;1.20;;;1.10;;
12519;SDS011;6325;49.540;8.364;2022-07-06T09:26:51;1.40;;;1.30;;
12519;SDS011;6325;49.540;8.364;2022-07-06T09:29:25;1.42;;;1.30;;
12519;SDS011;6325;49.540;8.364;2022-07-06T09:31:57;1.45;;;1.35;;
12519;SDS011;6325;49.540;8.364;2022-07-06T09:34:24;0.98;;;0.98;;
12519;SDS011;6325;49.540;8.364;2022-07-06T09:37:07;1.50;;;1.40;;
12519;SDS011;6325;49.540;8.364;2022-07-06T09:39:34;1.73;;;1.60;;
12519;SDS011;6325;49.540;8.364;2022-07-06T09:42:01;1.45;;;1.35;;
12519;SDS011;6325;49.540;8.364;2022-07-06T09:44:30;1.38;;;1.20;;
12519;SDS011;6325;49.540;8.364;2022-07-06T09:46:59;1.25;;;1.20;;
12519;SDS011;6325;49.540;8.364;2022-07-06T09:49:26;1.60;;;1.40;;
12519;SDS011;6325;49.540;8.364;2022-07-06T09:51:54;1.58;;;1.48;;
12519;SDS011;6325;49.540;8.364;2022-07-06T09:54:23;1.40;;;1.30;;
12519;SDS011;6325;49.540;8.364;2022-07-06T09:56:50;1.40;;;1.20;;
12519;SDS011;6325;49.540;8.364;2022-07-06T09:59:19;1.20;;;1.10;;
12519;SDS011;6325;49.540;8.364;2022-07-06T10:01:47;2.05;;;1.23;;
12519;SDS011;6325;49.540;8.364;2022-07-06T10:04:17;1.50;;;1.20;;
12519;SDS011;6325;49.540;8.364;2022-07-06T10:06:45;1.38;;;1.27;;
12519;SDS011;6325;49.540;8.364;2022-07-06T10:09:12;1.30;;;1.20;;
12519;SDS011;6325;49.540;8.364;2022-07-06T10:11:42;1.10;;;1.10;;
12519;SDS011;6325;49.540;8.364;2022-07-06T10:14:14;1.77;;;0.90;;
12519;SDS011;6325;49.540;8.364;2022-07-06T10:16:43;1.25;;;1.17;;
12519;SDS011;6325;49.540;8.364;2022-07-06T10:19:13;1.20;;;1.10;;
12519;SDS011;6325;49.540;8.364;2022-07-06T10:21:41;1.10;;;1.00;;
12519;SDS011;6325;49.540;8.364;2022-07-06T10:24:09;1.10;;;1.00;;
12519;SDS011;6325;49.540;8.364;2022-07-06T10:26:37;0.90;;;0.90;;
12519;SDS011;6325;49.540;8.364;2022-07-06T10:29:07;0.80;;;0.80;;
12519;SDS011;6325;49.540;8.364;2022-07-06T10:31:34;0.80;;;0.80;;
12519;SDS011;6325;49.540;8.364;2022-07-06T10:34:04;1.55;;;0.90;;
12519;SDS011;6325;49.540;8.364;2022-07-06T10:36:36;1.15;;;0.90;;
12519;SDS011;6325;49.540;8.364;2022-07-06T10:39:04;0.93;;;0.93;;
12519;SDS011;6325;49.540;8.364;2022-07-06T10:41:51;1.45;;;1.10;;
12519;SDS011;6325;49.540;8.364;2022-07-06T10:44:19;0.90;;;0.90;;
12519;SDS011;6325;49.540;8.364;2022-07-06T10:46:51;0.95;;;0.95;;
12519;SDS011;6325;49.540;8.364;2022-07-06T10:49:19;0.90;;;0.90;;
12519;SDS011;6325;49.540;8.364;2022-07-06T10:51:47;1.25;;;1.15;;
12519;SDS011;6325;49.540;8.364;2022-07-06T10:54:15;1.20;;;1.10;;
12519;SDS011;6325;49.540;8.364;2022-07-06T10:56:43;1.10;;;1.10;;
12519;SDS011;6325;49.540;8.364;2022-07-06T10:59:12;1.55;;;1.20;;
12519;SDS011;6325;49.540;8.364;2022-07-06T11:01:42;0.98;;;0.98;;
12519;SDS011;6325;49.540;8.364;2022-07-06T11:04:37;1.70;;;1.10;;
12519;SDS011;6325;49.540;8.364;2022-07-06T11:07:06;1.00;;;1.00;;
12519;SDS011;6325;49.540;8.364;2022-07-06T11:09:34;1.13;;;1.00;;
12519;SDS011;6325;49.540;8.364;2022-07-06T11:12:11;1.13;;;1.08;;
12519;SDS011;6325;49.540;8.364;2022-07-06T11:14:40;1.15;;;1.10;;
12519;SDS011;6325;49.540;8.364;2022-07-06T11:17:10;2.75;;;1.30;;
12519;SDS011;6325;49.540;8.364;2022-07-06T11:19:38;1.65;;;1.02;;
12519;SDS011;6325;49.540;8.364;2022-07-06T11:22:14;1.17;;;1.08;;
12519;SDS011;6325;49.540;8.364;2022-07-06T11:24:42;1.77;;;1.30;;
12519;SDS011;6325;49.540;8.364;2022-07-06T11:27:12;1.17;;;1.10;;
12519;SDS011;6325;49.540;8.364;2022-07-06T11:29:39;1.00;;;1.00;;
12519;SDS011;6325;49.540;8.364;2022-07-06T11:32:07;2.00;;;1.48;;
12519;SDS011;6325;49.540;8.364;2022-07-06T11:34:36;1.23;;;1.23;;
12519;SDS011;6325;49.540;8.364;2022-07-06T11:37:05;4.63;;;2.60;;
12519;SDS011;6325;49.540;8.364;2022-07-06T11:39:33;1.23;;;1.13;;
12519;SDS011;6325;49.540;8.364;2022-07-06T11:42:02;1.63;;;1.52;;
12519;SDS011;6325;49.540;8.364;2022-07-06T11:44:30;1.20;;;1.20;;
12519;SDS011;6325;49.540;8.364;2022-07-06T11:46:57;1.73;;;1.42;;
12519;SDS011;6325;49.540;8.364;2022-07-06T11:49:27;1.50;;;1.40;;
12519;SDS011;6325;49.540;8.364;2022-07-06T11:51:54;1.70;;;1.60;;
12519;SDS011;6325;49.540;8.364;2022-07-06T11:54:22;1.50;;;1.40;;
12519;SDS011;6325;49.540;8.364;2022-07-06T11:56:50;1.70;;;1.60;;
12519;SDS011;6325;49.540;8.364;2022-07-06T11:59:20;1.50;;;1.40;;
12519;SDS011;6325;49.540;8.364;2022-07-06T12:01:47;3.00;;;1.70;;
12519;SDS011;6325;49.540;8.364;2022-07-06T12:04:14;2.05;;;1.30;;
12519;SDS011;6325;49.540;8.364;2022-07-06T12:06:44;1.20;;;1.20;;
12519;SDS011;6325;49.540;8.364;2022-07-06T12:09:11;1.48;;;1.38;;
12519;SDS011;6325;49.540;8.364;2022-07-06T12:11:39;1.30;;;1.20;;
12519;SDS011;6325;49.540;8.364;2022-07-06T12:14:12;1.60;;;1.10;;
12519;SDS011;6325;49.540;8.364;2022-07-06T12:16:40;1.30;;;1.20;;
12519;SDS011;6325;49.540;8.364;2022-07-06T12:19:07;1.20;;;1.10;;
12519;SDS011;6325;49.540;8.364;2022-07-06T12:21:36;2.05;;;1.30;;
12519;SDS011;6325;49.540;8.364;2022-07-06T12:24:16;1.30;;;1.20;;
12519;SDS011;6325;49.540;8.364;2022-07-06T12:26:44;1.35;;;1.30;;
12519;SDS011;6325;49.540;8.364;2022-07-06T12:29:11;1.55;;;1.30;;
12519;SDS011;6325;49.540;8.364;2022-07-06T12:31:40;1.20;;;1.20;;
12519;SDS011;6325;49.540;8.364;2022-07-06T12:34:12;1.42;;;1.30;;
12519;SDS011;6325;49.540;8.364;2022-07-06T12:36:44;1.13;;;1.13;;
12519;SDS011;6325;49.540;8.364;2022-07-06T12:39:12;1.25;;;1.25;;
12519;SDS011;6325;49.540;8.364;2022-07-06T12:41:43;1.10;;;1.10;;
12519;SDS011;6325;49.540;8.364;2022-07-06T12:44:13;1.10;;;1.10;;
12519;SDS011;6325;49.540;8.364;2022-07-06T12:46:41;1.13;;;1.13;;
12519;SDS011;6325;49.540;8.364;2022-07-06T12:49:15;1.20;;;1.10;;
12519;SDS011;6325;49.540;8.364;2022-07-06T12:51:58;1.10;;;1.10;;
12519;SDS011;6325;49.540;8.364;2022-07-06T12:54:28;1.00;;;1.00;;
12519;SDS011;6325;49.540;8.364;2022-07-06T12:56:59;1.38;;;1.27;;
12519;SDS011;6325;49.540;8.364;2022-07-06T12:59:32;2.40;;;1.00;;
12519;SDS011;6325;49.540;8.364;2022-07-06T13:02:00;1.25;;;1.15;;
12519;SDS011;6325;49.540;8.364;2022-07-06T13:04:28;1.00;;;1.00;;
12519;SDS011;6325;49.540;8.364;2022-07-06T13:06:58;1.10;;;1.00;;
12519;SDS011;6325;49.540;8.364;2022-07-06T13:09:26;1.67;;;1.13;;
12519;SDS011;6325;49.540;8.364;2022-07-06T13:11:53;1.10;;;1.00;;
12519;SDS011;6325;49.540;8.364;2022-07-06T13:14:20;1.48;;;1.15;;
12519;SDS011;6325;49.540;8.364;2022-07-06T13:16:47;0.90;;;0.90;;
12519;SDS011;6325;49.540;8.364;2022-07-06T13:19:14;0.90;;;0.90;;
12519;SDS011;6325;49.540;8.364;2022-07-06T13:21:41;1.55;;;0.90;;
12519;SDS011;6325;49.540;8.364;2022-07-06T13:24:11;2.70;;;1.27;;
12519;SDS011;6325;49.540;8.364;2022-07-06T13:26:38;2.75;;;1.25;;
12519;SDS011;6325;49.540;8.364;2022-07-06T13:29:05;1.63;;;1.10;;
12519;SDS011;6325;49.540;8.364;2022-07-06T13:31:32;1.33;;;0.90;;
12519;SDS011;6325;49.540;8.364;2022-07-06T13:33:58;0.80;;;0.80;;
12519;SDS011;6325;49.540;8.364;2022-07-06T13:36:27;0.80;;;0.80;;
12519;SDS011;6325;49.540;8.364;2022-07-06T13:38:53;1.42;;;0.80;;
12519;SDS011;6325;49.540;8.364;2022-07-06T13:41:21;1.80;;;0.80;;
12519;SDS011;6325;49.540;8.364;2022-07-06T13:43:48;0.70;;;0.70;;
12519;SDS011;6325;49.540;8.364;2022-07-06T13:46:15;0.85;;;0.80;;
12519;SDS011;6325;49.540;8.364;2022-07-06T13:48:43;0.70;;;0.70;;
12519;SDS011;6325;49.540;8.364;2022-07-06T13:51:10;0.80;;;0.80;;
12519;SDS011;6325;49.540;8.364;2022-07-06T13:53:37;0.80;;;0.80;;
12519;SDS011;6325;49.540;8.364;2022-07-06T13:56:04;0.60;;;0.60;;
12519;SDS011;6325;49.540;8.364;2022-07-06T13:58:34;0.73;;;0.70;;
12519;SDS011;6325;49.540;8.364;2022-07-06T14:01:01;0.82;;;0.80;;
12519;SDS011;6325;49.540;8.364;2022-07-06T14:03:28;0.95;;;0.77;;
12519;SDS011;6325;49.540;8.364;2022-07-06T14:05:55;1.30;;;0.80;;
12519;SDS011;6325;49.540;8.364;2022-07-06T14:08:23;0.80;;;0.80;;
12519;SDS011;6325;49.540;8.364;2022-07-06T14:10:50;0.98;;;0.80;;
12519;SDS011;6325;49.540;8.364;2022-07-06T14:13:18;1.10;;;0.70;;
12519;SDS011;6325;49.540;8.364;2022-07-06T14:15:46;1.55;;;0.90;;
12519;SDS011;6325;49.540;8.364;2022-07-06T14:18:13;0.98;;;0.80;;
12519;SDS011;6325;49.540;8.364;2022-07-06T14:20:43;0.98;;;0.80;;
12519;SDS011;6325;49.540;8.364;2022-07-06T14:23:10;0.95;;;0.80;;
12519;SDS011;6325;49.540;8.364;2022-07-06T14:25:37;1.00;;;0.80;;
12519;SDS011;6325;49.540;8.364;2022-07-06T14:28:05;1.15;;;0.88;;
12519;SDS011;6325;49.540;8.364;2022-07-06T14:30:32;1.13;;;0.80;;
12519;SDS011;6325;49.540;8.364;2022-07-06T14:33:01;1.23;;;0.80;;
12519;SDS011;6325;49.540;8.364;2022-07-06T14:35:27;0.70;;;0.70;;
12519;SDS011;6325;49.540;8.364;2022-07-06T14:37:54;0.73;;;0.73;;
12519;SDS011;6325;49.540;8.364;2022-07-06T14:40:21;2.33;;;1.00;;
12519;SDS011;6325;49.540;8.364;2022-07-06T14:42:48;1.60;;;1.00;;
12519;SDS011;6325;49.540;8.364;2022-07-06T14:45:15;0.80;;;0.80;;
12519;SDS011;6325;49.540;8.364;2022-07-06T14:47:41;0.75;;;0.75;;
12519;SDS011;6325;49.540;8.364;2022-07-06T14:50:10;1.30;;;0.90;;
12519;SDS011;6325;49.540;8.364;2022-07-06T14:52:36;1.30;;;0.80;;
12519;SDS011;6325;49.540;8.364;2022-07-06T14:55:03;0.60;;;0.60;;
12519;SDS011;6325;49.540;8.364;2022-07-06T14:57:31;0.90;;;0.90;;
12519;SDS011;6325;49.540;8.364;2022-07-06T14:59:58;0.80;;;0.80;;
12519;SDS011;6325;49.540;8.364;2022-07-06T15:02:24;1.42;;;0.80;;
12519;SDS011;6325;49.540;8.364;2022-07-06T15:04:52;0.98;;;0.75;;